Portada
METAR-TAF:

METAR-TAF

Aeroports :

Juanjuí, Perú

latitud: 07-10-10S, longitud: 076-43-45W, altitud: 350 m

Observació

L'informe es va fer fa 6 hores i 47 minuts, a les 19:00 UTC
Vent 5 kt del Est
Temperatura 32°C
Humitat 63%
Pressió 1018 hPa
Visibilitat 10 km o més
Núvols disperses a una alçada de 2100 ft

METAR: SPJI 171900Z 10005KT 9999 SCT021 32/24 Q1018 RMK PP000

Hora: 20:47 (01:47 UTC)

Pronòstic

L'informe es va fer fa 8 hores i 47 minuts, a les 17:00 UTC
Pronòstic vàlid del 17 a les 18 UTC al 18 a les 18 UTC
Vent 4 kt del Est/Sud-Est
Visibilitat 10 km o més
Núvols disperses a una alçada de 2000 ft

TAF: SPJI 171700Z 1718/1818 12004KT 9999 SCT020 TX32/1720Z TN23/1811Z

Observacions i pronòstics meteorològics de més de 4000 aeroports (METAR i TAF).

Les estacions disponibles són els punts grocs i vermells al mapa.

Posi el ratolí al punt desitjat per veure el nom de l'estació.

Feu clic per veure les observacions i els pronòstics meteorològics.

Per canviar el mapa: feu clic els botons verds amb una creu de color negre per apropar; al botó verd amb un guió per allunyar la imatge; o en les fletxes verdes per a mapes adjacents.


METAR-TAF: